<?xml version="1.0" encoding="utf-8"?>
<gpx xmlns:xsi="http://www.w3.org/2001/XMLSchema-instance" xmlns:xsd="http://www.w3.org/2001/XMLSchema" version="1.1" creator="Shapelink.com" xmlns="http://www.topografix.com/GPX/1/1" xmlns:gpxtpx="http://www.garmin.com/xmlschemas/TrackPointExtension/v1">
  <metadata>
    <name>Sykling 3.26 km, 2013-04-17</name>
    <desc></desc>
    <author><name>Mikael Blom</name></author> 
    <time>2013-04-17T18:40:48Z</time>
  </metadata>
  <trk>
    <name>Sykling 3.26 km, 2013-04-17</name>
    <trkseg>
      <trkpt lat="59.9614974" lon="17.7803139">
        <ele>29.9381</ele>
        <time>2013-04-17T18:40:48Z</time>
      </trkpt>
      <trkpt lat="59.9615312" lon="17.780246">
        <ele>29.4575</ele>
        <time>2013-04-17T18:40:49Z</time>
      </trkpt>
      <trkpt lat="59.9615667" lon="17.7801788">
        <ele>29.4575</ele>
        <time>2013-04-17T18:40:50Z</time>
      </trkpt>
      <trkpt lat="59.9616027" lon="17.7801083">
        <ele>29.4575</ele>
        <time>2013-04-17T18:40:51Z</time>
      </trkpt>
      <trkpt lat="59.9616376" lon="17.7800325">
        <ele>29.4575</ele>
        <time>2013-04-17T18:40:52Z</time>
      </trkpt>
      <trkpt lat="59.9616727" lon="17.7799537">
        <ele>29.4575</ele>
        <time>2013-04-17T18:40:53Z</time>
      </trkpt>
      <trkpt lat="59.9617086" lon="17.7798742">
        <ele>29.4575</ele>
        <time>2013-04-17T18:40:54Z</time>
      </trkpt>
      <trkpt lat="59.9617441" lon="17.7797943">
        <ele>29.4575</ele>
        <time>2013-04-17T18:40:55Z</time>
      </trkpt>
      <trkpt lat="59.9617791" lon="17.7797146">
        <ele>29.4575</ele>
        <time>2013-04-17T18:40:56Z</time>
      </trkpt>
      <trkpt lat="59.9618146" lon="17.7796347">
        <ele>29.4575</ele>
        <time>2013-04-17T18:40:57Z</time>
      </trkpt>
      <trkpt lat="59.9618512" lon="17.7795535">
        <ele>29.4575</ele>
        <time>2013-04-17T18:40:58Z</time>
      </trkpt>
      <trkpt lat="59.9618895" lon="17.7794726">
        <ele>29.4575</ele>
        <time>2013-04-17T18:40:59Z</time>
      </trkpt>
      <trkpt lat="59.9619283" lon="17.7793912">
        <ele>29.4575</ele>
        <time>2013-04-17T18:41:00Z</time>
      </trkpt>
      <trkpt lat="59.9619674" lon="17.7793088">
        <ele>29.4575</ele>
        <time>2013-04-17T18:41:01Z</time>
      </trkpt>
      <trkpt lat="59.9620061" lon="17.7792245">
        <ele>29.4575</ele>
        <time>2013-04-17T18:41:02Z</time>
      </trkpt>
      <trkpt lat="59.9620448" lon="17.7791383">
        <ele>28.9769</ele>
        <time>2013-04-17T18:41:03Z</time>
      </trkpt>
      <trkpt lat="59.9620842" lon="17.7790521">
        <ele>28.9769</ele>
        <time>2013-04-17T18:41:04Z</time>
      </trkpt>
      <trkpt lat="59.9621244" lon="17.778966">
        <ele>28.9769</ele>
        <time>2013-04-17T18:41:05Z</time>
      </trkpt>
      <trkpt lat="59.9621643" lon="17.7788768">
        <ele>28.9769</ele>
        <time>2013-04-17T18:41:06Z</time>
      </trkpt>
      <trkpt lat="59.9622036" lon="17.7787847">
        <ele>28.9769</ele>
        <time>2013-04-17T18:41:07Z</time>
      </trkpt>
      <trkpt lat="59.9622427" lon="17.7786916">
        <ele>28.9769</ele>
        <time>2013-04-17T18:41:08Z</time>
      </trkpt>
      <trkpt lat="59.962281" lon="17.7785977">
        <ele>28.4962</ele>
        <time>2013-04-17T18:41:09Z</time>
      </trkpt>
      <trkpt lat="59.9623182" lon="17.7785023">
        <ele>28.4962</ele>
        <time>2013-04-17T18:41:10Z</time>
      </trkpt>
      <trkpt lat="59.9623566" lon="17.7784084">
        <ele>28.4962</ele>
        <time>2013-04-17T18:41:11Z</time>
      </trkpt>
      <trkpt lat="59.9623964" lon="17.7783153">
        <ele>28.4962</ele>
        <time>2013-04-17T18:41:12Z</time>
      </trkpt>
      <trkpt lat="59.9624369" lon="17.7782233">
        <ele>28.4962</ele>
        <time>2013-04-17T18:41:13Z</time>
      </trkpt>
      <trkpt lat="59.9624784" lon="17.7781325">
        <ele>28.4962</ele>
        <time>2013-04-17T18:41:14Z</time>
      </trkpt>
      <trkpt lat="59.9625202" lon="17.778042">
        <ele>28.4962</ele>
        <time>2013-04-17T18:41:15Z</time>
      </trkpt>
      <trkpt lat="59.9625627" lon="17.7779538">
        <ele>28.4962</ele>
        <time>2013-04-17T18:41:16Z</time>
      </trkpt>
      <trkpt lat="59.9626046" lon="17.7778657">
        <ele>28.4962</ele>
        <time>2013-04-17T18:41:17Z</time>
      </trkpt>
      <trkpt lat="59.9626457" lon="17.7777777">
        <ele>28.4962</ele>
        <time>2013-04-17T18:41:18Z</time>
      </trkpt>
      <trkpt lat="59.9626875" lon="17.7776917">
        <ele>28.4962</ele>
        <time>2013-04-17T18:41:19Z</time>
      </trkpt>
      <trkpt lat="59.962729" lon="17.7776074">
        <ele>28.9769</ele>
        <time>2013-04-17T18:41:20Z</time>
      </trkpt>
      <trkpt lat="59.9627695" lon="17.7775228">
        <ele>28.9769</ele>
        <time>2013-04-17T18:41:21Z</time>
      </trkpt>
      <trkpt lat="59.9628102" lon="17.7774399">
        <ele>28.9769</ele>
        <time>2013-04-17T18:41:22Z</time>
      </trkpt>
      <trkpt lat="59.9628503" lon="17.7773558">
        <ele>28.9769</ele>
        <time>2013-04-17T18:41:23Z</time>
      </trkpt>
      <trkpt lat="59.9628892" lon="17.7772696">
        <ele>28.9769</ele>
        <time>2013-04-17T18:41:24Z</time>
      </trkpt>
      <trkpt lat="59.9629274" lon="17.7771807">
        <ele>28.9769</ele>
        <time>2013-04-17T18:41:25Z</time>
      </trkpt>
      <trkpt lat="59.9629648" lon="17.7770892">
        <ele>28.9769</ele>
        <time>2013-04-17T18:41:26Z</time>
      </trkpt>
      <trkpt lat="59.9630015" lon="17.7769959">
        <ele>28.9769</ele>
        <time>2013-04-17T18:41:27Z</time>
      </trkpt>
      <trkpt lat="59.9630363" lon="17.7769006">
        <ele>28.9769</ele>
        <time>2013-04-17T18:41:28Z</time>
      </trkpt>
      <trkpt lat="59.9630695" lon="17.7768044">
        <ele>28.9769</ele>
        <time>2013-04-17T18:41:29Z</time>
      </trkpt>
      <trkpt lat="59.9631009" lon="17.7767078">
        <ele>29.4575</ele>
        <time>2013-04-17T18:41:30Z</time>
      </trkpt>
      <trkpt lat="59.9631285" lon="17.7766092">
        <ele>29.4575</ele>
        <time>2013-04-17T18:41:31Z</time>
      </trkpt>
      <trkpt lat="59.9631552" lon="17.7765132">
        <ele>29.4575</ele>
        <time>2013-04-17T18:41:32Z</time>
      </trkpt>
      <trkpt lat="59.9631813" lon="17.7764184">
        <ele>29.4575</ele>
        <time>2013-04-17T18:41:33Z</time>
      </trkpt>
      <trkpt lat="59.9632083" lon="17.7763288">
        <ele>29.9381</ele>
        <time>2013-04-17T18:41:34Z</time>
      </trkpt>
      <trkpt lat="59.9632366" lon="17.7762416">
        <ele>29.9381</ele>
        <time>2013-04-17T18:41:35Z</time>
      </trkpt>
      <trkpt lat="59.9632647" lon="17.776153">
        <ele>29.9381</ele>
        <time>2013-04-17T18:41:36Z</time>
      </trkpt>
      <trkpt lat="59.9632932" lon="17.7760626">
        <ele>29.9381</ele>
        <time>2013-04-17T18:41:37Z</time>
      </trkpt>
      <trkpt lat="59.963322" lon="17.7759709">
        <ele>29.9381</ele>
        <time>2013-04-17T18:41:38Z</time>
      </trkpt>
      <trkpt lat="59.9633516" lon="17.7758785">
        <ele>29.4575</ele>
        <time>2013-04-17T18:41:39Z</time>
      </trkpt>
      <trkpt lat="59.9633818" lon="17.7757849">
        <ele>29.4575</ele>
        <time>2013-04-17T18:41:40Z</time>
      </trkpt>
      <trkpt lat="59.9634118" lon="17.7756886">
        <ele>29.4575</ele>
        <time>2013-04-17T18:41:41Z</time>
      </trkpt>
      <trkpt lat="59.9634434" lon="17.7755907">
        <ele>29.4575</ele>
        <time>2013-04-17T18:41:42Z</time>
      </trkpt>
      <trkpt lat="59.9634764" lon="17.7754915">
        <ele>29.4575</ele>
        <time>2013-04-17T18:41:43Z</time>
      </trkpt>
      <trkpt lat="59.9635096" lon="17.7753921">
        <ele>28.9769</ele>
        <time>2013-04-17T18:41:44Z</time>
      </trkpt>
      <trkpt lat="59.9635413" lon="17.7752887">
        <ele>28.9769</ele>
        <time>2013-04-17T18:41:45Z</time>
      </trkpt>
      <trkpt lat="59.9635712" lon="17.775183">
        <ele>28.9769</ele>
        <time>2013-04-17T18:41:46Z</time>
      </trkpt>
      <trkpt lat="59.9635995" lon="17.7750753">
        <ele>28.9769</ele>
        <time>2013-04-17T18:41:47Z</time>
      </trkpt>
      <trkpt lat="59.9636258" lon="17.7749642">
        <ele>28.9769</ele>
        <time>2013-04-17T18:41:48Z</time>
      </trkpt>
      <trkpt lat="59.9636494" lon="17.7748508">
        <ele>28.9769</ele>
        <time>2013-04-17T18:41:49Z</time>
      </trkpt>
      <trkpt lat="59.9636706" lon="17.7747357">
        <ele>28.9769</ele>
        <time>2013-04-17T18:41:50Z</time>
      </trkpt>
      <trkpt lat="59.9636894" lon="17.7746185">
        <ele>28.9769</ele>
        <time>2013-04-17T18:41:51Z</time>
      </trkpt>
      <trkpt lat="59.9637066" lon="17.7745006">
        <ele>29.4575</ele>
        <time>2013-04-17T18:41:52Z</time>
      </trkpt>
      <trkpt lat="59.9637245" lon="17.7743904">
        <ele>29.4575</ele>
        <time>2013-04-17T18:41:53Z</time>
      </trkpt>
      <trkpt lat="59.9637411" lon="17.7742837">
        <ele>29.4575</ele>
        <time>2013-04-17T18:41:54Z</time>
      </trkpt>
      <trkpt lat="59.9637564" lon="17.7741794">
        <ele>29.4575</ele>
        <time>2013-04-17T18:41:55Z</time>
      </trkpt>
      <trkpt lat="59.9637729" lon="17.774077">
        <ele>29.4575</ele>
        <time>2013-04-17T18:41:56Z</time>
      </trkpt>
      <trkpt lat="59.9637911" lon="17.7739748">
        <ele>29.4575</ele>
        <time>2013-04-17T18:41:57Z</time>
      </trkpt>
      <trkpt lat="59.9638105" lon="17.7738705">
        <ele>29.4575</ele>
        <time>2013-04-17T18:41:58Z</time>
      </trkpt>
      <trkpt lat="59.9638295" lon="17.7737641">
        <ele>29.4575</ele>
        <time>2013-04-17T18:41:59Z</time>
      </trkpt>
      <trkpt lat="59.9638475" lon="17.7736572">
        <ele>28.9769</ele>
        <time>2013-04-17T18:42:00Z</time>
      </trkpt>
      <trkpt lat="59.9638642" lon="17.7735492">
        <ele>28.9769</ele>
        <time>2013-04-17T18:42:01Z</time>
      </trkpt>
      <trkpt lat="59.9638794" lon="17.7734409">
        <ele>28.9769</ele>
        <time>2013-04-17T18:42:02Z</time>
      </trkpt>
      <trkpt lat="59.9638924" lon="17.7733341">
        <ele>28.9769</ele>
        <time>2013-04-17T18:42:03Z</time>
      </trkpt>
      <trkpt lat="59.9639039" lon="17.773229">
        <ele>29.4575</ele>
        <time>2013-04-17T18:42:04Z</time>
      </trkpt>
      <trkpt lat="59.9639128" lon="17.7731244">
        <ele>29.4575</ele>
        <time>2013-04-17T18:42:05Z</time>
      </trkpt>
      <trkpt lat="59.9639186" lon="17.7730197">
        <ele>29.4575</ele>
        <time>2013-04-17T18:42:06Z</time>
      </trkpt>
      <trkpt lat="59.9639204" lon="17.7729135">
        <ele>29.4575</ele>
        <time>2013-04-17T18:42:07Z</time>
      </trkpt>
      <trkpt lat="59.9639174" lon="17.7728062">
        <ele>28.9769</ele>
        <time>2013-04-17T18:42:08Z</time>
      </trkpt>
      <trkpt lat="59.9639111" lon="17.7726984">
        <ele>28.9769</ele>
        <time>2013-04-17T18:42:09Z</time>
      </trkpt>
      <trkpt lat="59.9639018" lon="17.7725883">
        <ele>28.9769</ele>
        <time>2013-04-17T18:42:10Z</time>
      </trkpt>
      <trkpt lat="59.963889" lon="17.7724769">
        <ele>28.9769</ele>
        <time>2013-04-17T18:42:11Z</time>
      </trkpt>
      <trkpt lat="59.9638727" lon="17.7723664">
        <ele>29.4575</ele>
        <time>2013-04-17T18:42:12Z</time>
      </trkpt>
      <trkpt lat="59.9638537" lon="17.7722591">
        <ele>29.4575</ele>
        <time>2013-04-17T18:42:13Z</time>
      </trkpt>
      <trkpt lat="59.9638334" lon="17.7721572">
        <ele>29.4575</ele>
        <time>2013-04-17T18:42:14Z</time>
      </trkpt>
      <trkpt lat="59.9638123" lon="17.7720593">
        <ele>29.4575</ele>
        <time>2013-04-17T18:42:15Z</time>
      </trkpt>
      <trkpt lat="59.9637915" lon="17.7719624">
        <ele>29.9381</ele>
        <time>2013-04-17T18:42:16Z</time>
      </trkpt>
      <trkpt lat="59.9637703" lon="17.7718656">
        <ele>29.9381</ele>
        <time>2013-04-17T18:42:17Z</time>
      </trkpt>
      <trkpt lat="59.9637481" lon="17.7717693">
        <ele>29.9381</ele>
        <time>2013-04-17T18:42:18Z</time>
      </trkpt>
      <trkpt lat="59.9637251" lon="17.7716736">
        <ele>29.9381</ele>
        <time>2013-04-17T18:42:19Z</time>
      </trkpt>
      <trkpt lat="59.9637014" lon="17.7715785">
        <ele>30.4188</ele>
        <time>2013-04-17T18:42:20Z</time>
      </trkpt>
      <trkpt lat="59.9636776" lon="17.7714816">
        <ele>30.4188</ele>
        <time>2013-04-17T18:42:21Z</time>
      </trkpt>
      <trkpt lat="59.9636541" lon="17.7713813">
        <ele>30.4188</ele>
        <time>2013-04-17T18:42:22Z</time>
      </trkpt>
      <trkpt lat="59.9636308" lon="17.7712793">
        <ele>30.4188</ele>
        <time>2013-04-17T18:42:23Z</time>
      </trkpt>
      <trkpt lat="59.963607" lon="17.7711767">
        <ele>30.4188</ele>
        <time>2013-04-17T18:42:24Z</time>
      </trkpt>
      <trkpt lat="59.9635834" lon="17.7710725">
        <ele>30.8995</ele>
        <time>2013-04-17T18:42:25Z</time>
      </trkpt>
      <trkpt lat="59.9635621" lon="17.7709675">
        <ele>30.8995</ele>
        <time>2013-04-17T18:42:26Z</time>
      </trkpt>
      <trkpt lat="59.9635439" lon="17.7708639">
        <ele>30.8995</ele>
        <time>2013-04-17T18:42:27Z</time>
      </trkpt>
      <trkpt lat="59.9635289" lon="17.7707654">
        <ele>31.3801</ele>
        <time>2013-04-17T18:42:28Z</time>
      </trkpt>
      <trkpt lat="59.9635173" lon="17.7706732">
        <ele>31.3801</ele>
        <time>2013-04-17T18:42:29Z</time>
      </trkpt>
      <trkpt lat="59.9635082" lon="17.7705868">
        <ele>31.3801</ele>
        <time>2013-04-17T18:42:30Z</time>
      </trkpt>
      <trkpt lat="59.9635003" lon="17.7705048">
        <ele>31.8607</ele>
        <time>2013-04-17T18:42:31Z</time>
      </trkpt>
      <trkpt lat="59.9634945" lon="17.7704231">
        <ele>31.8607</ele>
        <time>2013-04-17T18:42:32Z</time>
      </trkpt>
      <trkpt lat="59.9634907" lon="17.770338">
        <ele>31.8607</ele>
        <time>2013-04-17T18:42:33Z</time>
      </trkpt>
      <trkpt lat="59.9634869" lon="17.7702521">
        <ele>32.3416</ele>
        <time>2013-04-17T18:42:34Z</time>
      </trkpt>
      <trkpt lat="59.9634853" lon="17.7701682">
        <ele>32.3416</ele>
        <time>2013-04-17T18:42:35Z</time>
      </trkpt>
      <trkpt lat="59.9634823" lon="17.7700758">
        <ele>32.3416</ele>
        <time>2013-04-17T18:42:36Z</time>
      </trkpt>
      <trkpt lat="59.9634792" lon="17.7699784">
        <ele>32.8223</ele>
        <time>2013-04-17T18:42:37Z</time>
      </trkpt>
      <trkpt lat="59.9634813" lon="17.7698884">
        <ele>32.8223</ele>
        <time>2013-04-17T18:42:38Z</time>
      </trkpt>
      <trkpt lat="59.9634842" lon="17.7697997">
        <ele>32.8223</ele>
        <time>2013-04-17T18:42:39Z</time>
      </trkpt>
      <trkpt lat="59.9634909" lon="17.769708">
        <ele>32.3416</ele>
        <time>2013-04-17T18:42:40Z</time>
      </trkpt>
      <trkpt lat="59.9635026" lon="17.7696152">
        <ele>32.3416</ele>
        <time>2013-04-17T18:42:41Z</time>
      </trkpt>
      <trkpt lat="59.9635189" lon="17.7695231">
        <ele>32.3416</ele>
        <time>2013-04-17T18:42:42Z</time>
      </trkpt>
      <trkpt lat="59.9635402" lon="17.769431">
        <ele>32.3416</ele>
        <time>2013-04-17T18:42:43Z</time>
      </trkpt>
      <trkpt lat="59.9635641" lon="17.7693376">
        <ele>32.3416</ele>
        <time>2013-04-17T18:42:44Z</time>
      </trkpt>
      <trkpt lat="59.963589" lon="17.7692422">
        <ele>32.3416</ele>
        <time>2013-04-17T18:42:45Z</time>
      </trkpt>
      <trkpt lat="59.9636159" lon="17.7691497">
        <ele>31.8607</ele>
        <time>2013-04-17T18:42:46Z</time>
      </trkpt>
      <trkpt lat="59.9636437" lon="17.7690576">
        <ele>31.8607</ele>
        <time>2013-04-17T18:42:47Z</time>
      </trkpt>
      <trkpt lat="59.9636706" lon="17.7689632">
        <ele>31.8607</ele>
        <time>2013-04-17T18:42:48Z</time>
      </trkpt>
      <trkpt lat="59.9636971" lon="17.7688663">
        <ele>31.8607</ele>
        <time>2013-04-17T18:42:49Z</time>
      </trkpt>
      <trkpt lat="59.9637242" lon="17.7687686">
        <ele>31.8607</ele>
        <time>2013-04-17T18:42:50Z</time>
      </trkpt>
      <trkpt lat="59.9637536" lon="17.768672">
        <ele>31.8607</ele>
        <time>2013-04-17T18:42:51Z</time>
      </trkpt>
      <trkpt lat="59.9637827" lon="17.7685745">
        <ele>31.8607</ele>
        <time>2013-04-17T18:42:52Z</time>
      </trkpt>
      <trkpt lat="59.9638102" lon="17.7684774">
        <ele>31.3801</ele>
        <time>2013-04-17T18:42:53Z</time>
      </trkpt>
      <trkpt lat="59.9638364" lon="17.7683814">
        <ele>31.3801</ele>
        <time>2013-04-17T18:42:54Z</time>
      </trkpt>
      <trkpt lat="59.963862" lon="17.7682877">
        <ele>31.8607</ele>
        <time>2013-04-17T18:42:55Z</time>
      </trkpt>
      <trkpt lat="59.963887" lon="17.7681966">
        <ele>31.8607</ele>
        <time>2013-04-17T18:42:56Z</time>
      </trkpt>
      <trkpt lat="59.963906" lon="17.7680951">
        <ele>32.3416</ele>
        <time>2013-04-17T18:42:57Z</time>
      </trkpt>
      <trkpt lat="59.9639235" lon="17.7679982">
        <ele>32.8223</ele>
        <time>2013-04-17T18:42:58Z</time>
      </trkpt>
      <trkpt lat="59.9639415" lon="17.7679081">
        <ele>32.8223</ele>
        <time>2013-04-17T18:42:59Z</time>
      </trkpt>
      <trkpt lat="59.9639604" lon="17.7678216">
        <ele>32.8223</ele>
        <time>2013-04-17T18:43:00Z</time>
      </trkpt>
      <trkpt lat="59.9639783" lon="17.7677324">
        <ele>32.8223</ele>
        <time>2013-04-17T18:43:01Z</time>
      </trkpt>
      <trkpt lat="59.9639946" lon="17.7676412">
        <ele>32.8223</ele>
        <time>2013-04-17T18:43:02Z</time>
      </trkpt>
      <trkpt lat="59.96401" lon="17.7675453">
        <ele>33.3029</ele>
        <time>2013-04-17T18:43:03Z</time>
      </trkpt>
      <trkpt lat="59.9640237" lon="17.7674425">
        <ele>33.7834</ele>
        <time>2013-04-17T18:43:04Z</time>
      </trkpt>
      <trkpt lat="59.9640385" lon="17.7673485">
        <ele>33.7834</ele>
        <time>2013-04-17T18:43:05Z</time>
      </trkpt>
      <trkpt lat="59.9640519" lon="17.7672539">
        <ele>33.3029</ele>
        <time>2013-04-17T18:43:06Z</time>
      </trkpt>
      <trkpt lat="59.9640625" lon="17.7671544">
        <ele>33.3029</ele>
        <time>2013-04-17T18:43:07Z</time>
      </trkpt>
      <trkpt lat="59.9640702" lon="17.7670516">
        <ele>33.3029</ele>
        <time>2013-04-17T18:43:08Z</time>
      </trkpt>
      <trkpt lat="59.9640769" lon="17.7669478">
        <ele>33.3029</ele>
        <time>2013-04-17T18:43:09Z</time>
      </trkpt>
      <trkpt lat="59.9640806" lon="17.7668435">
        <ele>33.3029</ele>
        <time>2013-04-17T18:43:10Z</time>
      </trkpt>
      <trkpt lat="59.9640806" lon="17.7667401">
        <ele>32.8223</ele>
        <time>2013-04-17T18:43:11Z</time>
      </trkpt>
      <trkpt lat="59.964078" lon="17.7666358">
        <ele>32.8223</ele>
        <time>2013-04-17T18:43:12Z</time>
      </trkpt>
      <trkpt lat="59.964076" lon="17.7665299">
        <ele>32.8223</ele>
        <time>2013-04-17T18:43:13Z</time>
      </trkpt>
      <trkpt lat="59.9640744" lon="17.7664248">
        <ele>32.8223</ele>
        <time>2013-04-17T18:43:14Z</time>
      </trkpt>
      <trkpt lat="59.9640722" lon="17.7663132">
        <ele>32.8223</ele>
        <time>2013-04-17T18:43:15Z</time>
      </trkpt>
      <trkpt lat="59.9640672" lon="17.7661933">
        <ele>32.8223</ele>
        <time>2013-04-17T18:43:16Z</time>
      </trkpt>
      <trkpt lat="59.964066" lon="17.7660764">
        <ele>32.8223</ele>
        <time>2013-04-17T18:43:17Z</time>
      </trkpt>
      <trkpt lat="59.9640657" lon="17.7659515">
        <ele>32.8223</ele>
        <time>2013-04-17T18:43:18Z</time>
      </trkpt>
      <trkpt lat="59.9640738" lon="17.7658407">
        <ele>32.8223</ele>
        <time>2013-04-17T18:43:19Z</time>
      </trkpt>
      <trkpt lat="59.9640793" lon="17.7657183">
        <ele>32.3416</ele>
        <time>2013-04-17T18:43:20Z</time>
      </trkpt>
      <trkpt lat="59.964083" lon="17.7655835">
        <ele>32.3416</ele>
        <time>2013-04-17T18:43:21Z</time>
      </trkpt>
      <trkpt lat="59.9640856" lon="17.7654344">
        <ele>32.3416</ele>
        <time>2013-04-17T18:43:22Z</time>
      </trkpt>
      <trkpt lat="59.9640946" lon="17.7652886">
        <ele>31.8607</ele>
        <time>2013-04-17T18:43:23Z</time>
      </trkpt>
      <trkpt lat="59.96411" lon="17.7651453">
        <ele>31.3801</ele>
        <time>2013-04-17T18:43:24Z</time>
      </trkpt>
      <trkpt lat="59.9641301" lon="17.7649972">
        <ele>31.3801</ele>
        <time>2013-04-17T18:43:25Z</time>
      </trkpt>
      <trkpt lat="59.9641563" lon="17.7648583">
        <ele>30.8995</ele>
        <time>2013-04-17T18:43:26Z</time>
      </trkpt>
      <trkpt lat="59.964186" lon="17.7647262">
        <ele>30.4188</ele>
        <time>2013-04-17T18:43:27Z</time>
      </trkpt>
      <trkpt lat="59.9642177" lon="17.7645994">
        <ele>30.4188</ele>
        <time>2013-04-17T18:43:28Z</time>
      </trkpt>
      <trkpt lat="59.9642498" lon="17.7644764">
        <ele>29.9381</ele>
        <time>2013-04-17T18:43:29Z</time>
      </trkpt>
      <trkpt lat="59.9642821" lon="17.7643574">
        <ele>29.9381</ele>
        <time>2013-04-17T18:43:30Z</time>
      </trkpt>
      <trkpt lat="59.9643132" lon="17.7642347">
        <ele>29.9381</ele>
        <time>2013-04-17T18:43:31Z</time>
      </trkpt>
      <trkpt lat="59.9643454" lon="17.7641161">
        <ele>29.4575</ele>
        <time>2013-04-17T18:43:32Z</time>
      </trkpt>
      <trkpt lat="59.9643779" lon="17.763999">
        <ele>29.4575</ele>
        <time>2013-04-17T18:43:33Z</time>
      </trkpt>
      <trkpt lat="59.96441" lon="17.7638805">
        <ele>28.9769</ele>
        <time>2013-04-17T18:43:34Z</time>
      </trkpt>
      <trkpt lat="59.9644409" lon="17.7637625">
        <ele>28.9769</ele>
        <time>2013-04-17T18:43:35Z</time>
      </trkpt>
      <trkpt lat="59.9644704" lon="17.7636464">
        <ele>28.9769</ele>
        <time>2013-04-17T18:43:36Z</time>
      </trkpt>
      <trkpt lat="59.9645001" lon="17.763535">
        <ele>28.9769</ele>
        <time>2013-04-17T18:43:37Z</time>
      </trkpt>
      <trkpt lat="59.9645296" lon="17.7634252">
        <ele>28.4962</ele>
        <time>2013-04-17T18:43:38Z</time>
      </trkpt>
      <trkpt lat="59.9645582" lon="17.7633148">
        <ele>28.4962</ele>
        <time>2013-04-17T18:43:39Z</time>
      </trkpt>
      <trkpt lat="59.9645867" lon="17.7632055">
        <ele>28.4962</ele>
        <time>2013-04-17T18:43:40Z</time>
      </trkpt>
      <trkpt lat="59.9646152" lon="17.7631003">
        <ele>28.0155</ele>
        <time>2013-04-17T18:43:41Z</time>
      </trkpt>
      <trkpt lat="59.9646414" lon="17.7629891">
        <ele>28.0155</ele>
        <time>2013-04-17T18:43:42Z</time>
      </trkpt>
      <trkpt lat="59.9646697" lon="17.7628823">
        <ele>27.5349</ele>
        <time>2013-04-17T18:43:43Z</time>
      </trkpt>
      <trkpt lat="59.9647004" lon="17.7627788">
        <ele>27.5349</ele>
        <time>2013-04-17T18:43:44Z</time>
      </trkpt>
      <trkpt lat="59.9647328" lon="17.7626767">
        <ele>27.5349</ele>
        <time>2013-04-17T18:43:45Z</time>
      </trkpt>
      <trkpt lat="59.9647669" lon="17.7625772">
        <ele>27.0543</ele>
        <time>2013-04-17T18:43:46Z</time>
      </trkpt>
      <trkpt lat="59.9647997" lon="17.7624725">
        <ele>27.0543</ele>
        <time>2013-04-17T18:43:47Z</time>
      </trkpt>
      <trkpt lat="59.9648323" lon="17.7623659">
        <ele>27.5349</ele>
        <time>2013-04-17T18:43:48Z</time>
      </trkpt>
      <trkpt lat="59.9648677" lon="17.7622618">
        <ele>27.5349</ele>
        <time>2013-04-17T18:43:49Z</time>
      </trkpt>
      <trkpt lat="59.9649073" lon="17.762167">
        <ele>27.0543</ele>
        <time>2013-04-17T18:43:50Z</time>
      </trkpt>
      <trkpt lat="59.9649451" lon="17.7620684">
        <ele>27.5349</ele>
        <time>2013-04-17T18:43:51Z</time>
      </trkpt>
      <trkpt lat="59.9649829" lon="17.7619752">
        <ele>27.5349</ele>
        <time>2013-04-17T18:43:52Z</time>
      </trkpt>
      <trkpt lat="59.9650197" lon="17.7618825">
        <ele>27.5349</ele>
        <time>2013-04-17T18:43:53Z</time>
      </trkpt>
      <trkpt lat="59.965057" lon="17.7617918">
        <ele>27.5349</ele>
        <time>2013-04-17T18:43:54Z</time>
      </trkpt>
      <trkpt lat="59.9650952" lon="17.7617021">
        <ele>27.5349</ele>
        <time>2013-04-17T18:43:55Z</time>
      </trkpt>
      <trkpt lat="59.9651325" lon="17.7616104">
        <ele>27.5349</ele>
        <time>2013-04-17T18:43:56Z</time>
      </trkpt>
      <trkpt lat="59.9651685" lon="17.7615158">
        <ele>27.5349</ele>
        <time>2013-04-17T18:43:57Z</time>
      </trkpt>
      <trkpt lat="59.9652041" lon="17.7614201">
        <ele>27.5349</ele>
        <time>2013-04-17T18:43:58Z</time>
      </trkpt>
      <trkpt lat="59.9652402" lon="17.7613227">
        <ele>27.0543</ele>
        <time>2013-04-17T18:43:59Z</time>
      </trkpt>
      <trkpt lat="59.9652767" lon="17.7612232">
        <ele>27.0543</ele>
        <time>2013-04-17T18:44:00Z</time>
      </trkpt>
      <trkpt lat="59.9653144" lon="17.7611226">
        <ele>26.5736</ele>
        <time>2013-04-17T18:44:01Z</time>
      </trkpt>
      <trkpt lat="59.9653533" lon="17.7610219">
        <ele>26.5736</ele>
        <time>2013-04-17T18:44:02Z</time>
      </trkpt>
      <trkpt lat="59.9653943" lon="17.7609257">
        <ele>26.0929</ele>
        <time>2013-04-17T18:44:03Z</time>
      </trkpt>
      <trkpt lat="59.9654373" lon="17.7608353">
        <ele>25.6123</ele>
        <time>2013-04-17T18:44:04Z</time>
      </trkpt>
      <trkpt lat="59.9654833" lon="17.7607522">
        <ele>25.1317</ele>
        <time>2013-04-17T18:44:05Z</time>
      </trkpt>
      <trkpt lat="59.965529" lon="17.7606756">
        <ele>24.651</ele>
        <time>2013-04-17T18:44:06Z</time>
      </trkpt>
      <trkpt lat="59.9655764" lon="17.7606036">
        <ele>24.651</ele>
        <time>2013-04-17T18:44:07Z</time>
      </trkpt>
      <trkpt lat="59.9656253" lon="17.7605348">
        <ele>24.651</ele>
        <time>2013-04-17T18:44:08Z</time>
      </trkpt>
      <trkpt lat="59.9656735" lon="17.7604632">
        <ele>24.651</ele>
        <time>2013-04-17T18:44:09Z</time>
      </trkpt>
      <trkpt lat="59.9657206" lon="17.7603855">
        <ele>24.651</ele>
        <time>2013-04-17T18:44:10Z</time>
      </trkpt>
      <trkpt lat="59.9657682" lon="17.7603057">
        <ele>24.651</ele>
        <time>2013-04-17T18:44:11Z</time>
      </trkpt>
      <trkpt lat="59.9658148" lon="17.7602221">
        <ele>24.651</ele>
        <time>2013-04-17T18:44:12Z</time>
      </trkpt>
      <trkpt lat="59.9658625" lon="17.7601415">
        <ele>24.651</ele>
        <time>2013-04-17T18:44:13Z</time>
      </trkpt>
      <trkpt lat="59.9659097" lon="17.7600593">
        <ele>24.651</ele>
        <time>2013-04-17T18:44:14Z</time>
      </trkpt>
      <trkpt lat="59.9659573" lon="17.7599778">
        <ele>24.651</ele>
        <time>2013-04-17T18:44:15Z</time>
      </trkpt>
      <trkpt lat="59.9660049" lon="17.7598973">
        <ele>24.651</ele>
        <time>2013-04-17T18:44:16Z</time>
      </trkpt>
      <trkpt lat="59.9660516" lon="17.7598152">
        <ele>24.651</ele>
        <time>2013-04-17T18:44:17Z</time>
      </trkpt>
      <trkpt lat="59.966098" lon="17.7597333">
        <ele>25.1317</ele>
        <time>2013-04-17T18:44:18Z</time>
      </trkpt>
      <trkpt lat="59.9661433" lon="17.7596494">
        <ele>25.1317</ele>
        <time>2013-04-17T18:44:19Z</time>
      </trkpt>
      <trkpt lat="59.9661878" lon="17.7595649">
        <ele>25.6123</ele>
        <time>2013-04-17T18:44:20Z</time>
      </trkpt>
      <trkpt lat="59.9662334" lon="17.7594904">
        <ele>25.6123</ele>
        <time>2013-04-17T18:44:21Z</time>
      </trkpt>
      <trkpt lat="59.9662779" lon="17.7594183">
        <ele>26.0929</ele>
        <time>2013-04-17T18:44:22Z</time>
      </trkpt>
      <trkpt lat="59.9663224" lon="17.7593488">
        <ele>26.0929</ele>
        <time>2013-04-17T18:44:23Z</time>
      </trkpt>
      <trkpt lat="59.9663662" lon="17.7592763">
        <ele>26.5736</ele>
        <time>2013-04-17T18:44:24Z</time>
      </trkpt>
      <trkpt lat="59.9664121" lon="17.7592115">
        <ele>26.0929</ele>
        <time>2013-04-17T18:44:25Z</time>
      </trkpt>
      <trkpt lat="59.9664588" lon="17.7591475">
        <ele>26.0929</ele>
        <time>2013-04-17T18:44:26Z</time>
      </trkpt>
      <trkpt lat="59.9665069" lon="17.7590864">
        <ele>26.0929</ele>
        <time>2013-04-17T18:44:27Z</time>
      </trkpt>
      <trkpt lat="59.966556" lon="17.7590245">
        <ele>26.0929</ele>
        <time>2013-04-17T18:44:28Z</time>
      </trkpt>
      <trkpt lat="59.9666059" lon="17.7589636">
        <ele>26.5736</ele>
        <time>2013-04-17T18:44:29Z</time>
      </trkpt>
      <trkpt lat="59.9666572" lon="17.7589095">
        <ele>26.5736</ele>
        <time>2013-04-17T18:44:30Z</time>
      </trkpt>
      <trkpt lat="59.96671" lon="17.758859">
        <ele>26.5736</ele>
        <time>2013-04-17T18:44:31Z</time>
      </trkpt>
      <trkpt lat="59.9667634" lon="17.7588097">
        <ele>26.5736</ele>
        <time>2013-04-17T18:44:32Z</time>
      </trkpt>
      <trkpt lat="59.9668162" lon="17.7587565">
        <ele>26.5736</ele>
        <time>2013-04-17T18:44:33Z</time>
      </trkpt>
      <trkpt lat="59.9668705" lon="17.7587071">
        <ele>26.5736</ele>
        <time>2013-04-17T18:44:34Z</time>
      </trkpt>
      <trkpt lat="59.9669258" lon="17.758661">
        <ele>26.5736</ele>
        <time>2013-04-17T18:44:35Z</time>
      </trkpt>
      <trkpt lat="59.9669814" lon="17.7586177">
        <ele>26.5736</ele>
        <time>2013-04-17T18:44:36Z</time>
      </trkpt>
      <trkpt lat="59.9670341" lon="17.7585714">
        <ele>27.0543</ele>
        <time>2013-04-17T18:44:37Z</time>
      </trkpt>
      <trkpt lat="59.9670856" lon="17.7585284">
        <ele>27.0543</ele>
        <time>2013-04-17T18:44:38Z</time>
      </trkpt>
      <trkpt lat="59.9671394" lon="17.7584866">
        <ele>27.0543</ele>
        <time>2013-04-17T18:44:39Z</time>
      </trkpt>
      <trkpt lat="59.9671928" lon="17.7584393">
        <ele>27.5349</ele>
        <time>2013-04-17T18:44:40Z</time>
      </trkpt>
      <trkpt lat="59.9672463" lon="17.7583931">
        <ele>27.5349</ele>
        <time>2013-04-17T18:44:41Z</time>
      </trkpt>
      <trkpt lat="59.9673" lon="17.7583464">
        <ele>27.5349</ele>
        <time>2013-04-17T18:44:42Z</time>
      </trkpt>
      <trkpt lat="59.9673537" lon="17.7582975">
        <ele>27.5349</ele>
        <time>2013-04-17T18:44:43Z</time>
      </trkpt>
      <trkpt lat="59.9674087" lon="17.7582513">
        <ele>27.5349</ele>
        <time>2013-04-17T18:44:44Z</time>
      </trkpt>
      <trkpt lat="59.9674636" lon="17.7582006">
        <ele>27.5349</ele>
        <time>2013-04-17T18:44:45Z</time>
      </trkpt>
      <trkpt lat="59.9675184" lon="17.7581451">
        <ele>27.5349</ele>
        <time>2013-04-17T18:44:46Z</time>
      </trkpt>
      <trkpt lat="59.967573" lon="17.7580854">
        <ele>27.5349</ele>
        <time>2013-04-17T18:44:47Z</time>
      </trkpt>
      <trkpt lat="59.9676274" lon="17.7580242">
        <ele>27.5349</ele>
        <time>2013-04-17T18:44:48Z</time>
      </trkpt>
      <trkpt lat="59.9676817" lon="17.7579647">
        <ele>28.0155</ele>
        <time>2013-04-17T18:44:49Z</time>
      </trkpt>
      <trkpt lat="59.9677352" lon="17.7579063">
        <ele>28.0155</ele>
        <time>2013-04-17T18:44:50Z</time>
      </trkpt>
      <trkpt lat="59.9677875" lon="17.7578473">
        <ele>28.4962</ele>
        <time>2013-04-17T18:44:51Z</time>
      </trkpt>
      <trkpt lat="59.9678387" lon="17.7577897">
        <ele>28.4962</ele>
        <time>2013-04-17T18:44:52Z</time>
      </trkpt>
      <trkpt lat="59.9678873" lon="17.7577324">
        <ele>28.9769</ele>
        <time>2013-04-17T18:44:53Z</time>
      </trkpt>
      <trkpt lat="59.9679335" lon="17.7576763">
        <ele>28.9769</ele>
        <time>2013-04-17T18:44:54Z</time>
      </trkpt>
      <trkpt lat="59.9679784" lon="17.7576225">
        <ele>29.4575</ele>
        <time>2013-04-17T18:44:55Z</time>
      </trkpt>
      <trkpt lat="59.9680216" lon="17.7575699">
        <ele>29.4575</ele>
        <time>2013-04-17T18:44:56Z</time>
      </trkpt>
      <trkpt lat="59.9680634" lon="17.7575184">
        <ele>29.9381</ele>
        <time>2013-04-17T18:44:57Z</time>
      </trkpt>
      <trkpt lat="59.9681039" lon="17.7574701">
        <ele>29.9381</ele>
        <time>2013-04-17T18:44:58Z</time>
      </trkpt>
      <trkpt lat="59.9681422" lon="17.7574213">
        <ele>30.4188</ele>
        <time>2013-04-17T18:44:59Z</time>
      </trkpt>
      <trkpt lat="59.9681786" lon="17.7573717">
        <ele>30.8995</ele>
        <time>2013-04-17T18:45:00Z</time>
      </trkpt>
      <trkpt lat="59.9682138" lon="17.7573225">
        <ele>30.8995</ele>
        <time>2013-04-17T18:45:01Z</time>
      </trkpt>
      <trkpt lat="59.9682479" lon="17.7572727">
        <ele>30.8995</ele>
        <time>2013-04-17T18:45:02Z</time>
      </trkpt>
      <trkpt lat="59.9682823" lon="17.7572241">
        <ele>31.3801</ele>
        <time>2013-04-17T18:45:03Z</time>
      </trkpt>
      <trkpt lat="59.9683174" lon="17.7571749">
        <ele>31.3801</ele>
        <time>2013-04-17T18:45:04Z</time>
      </trkpt>
      <trkpt lat="59.9683527" lon="17.7571234">
        <ele>31.3801</ele>
        <time>2013-04-17T18:45:05Z</time>
      </trkpt>
      <trkpt lat="59.968389" lon="17.7570687">
        <ele>31.8607</ele>
        <time>2013-04-17T18:45:06Z</time>
      </trkpt>
      <trkpt lat="59.9684268" lon="17.7570122">
        <ele>31.8607</ele>
        <time>2013-04-17T18:45:07Z</time>
      </trkpt>
      <trkpt lat="59.9684662" lon="17.756955">
        <ele>31.8607</ele>
        <time>2013-04-17T18:45:08Z</time>
      </trkpt>
      <trkpt lat="59.9685059" lon="17.7568957">
        <ele>31.8607</ele>
        <time>2013-04-17T18:45:09Z</time>
      </trkpt>
      <trkpt lat="59.9685459" lon="17.756835">
        <ele>31.8607</ele>
        <time>2013-04-17T18:45:10Z</time>
      </trkpt>
      <trkpt lat="59.9685863" lon="17.7567734">
        <ele>31.8607</ele>
        <time>2013-04-17T18:45:11Z</time>
      </trkpt>
      <trkpt lat="59.9686264" lon="17.7567109">
        <ele>31.8607</ele>
        <time>2013-04-17T18:45:12Z</time>
      </trkpt>
      <trkpt lat="59.9686659" lon="17.7566477">
        <ele>32.3416</ele>
        <time>2013-04-17T18:45:13Z</time>
      </trkpt>
      <trkpt lat="59.9687049" lon="17.7565849">
        <ele>32.3416</ele>
        <time>2013-04-17T18:45:14Z</time>
      </trkpt>
      <trkpt lat="59.9687431" lon="17.756519">
        <ele>32.3416</ele>
        <time>2013-04-17T18:45:15Z</time>
      </trkpt>
      <trkpt lat="59.9687811" lon="17.7564493">
        <ele>32.3416</ele>
        <time>2013-04-17T18:45:16Z</time>
      </trkpt>
      <trkpt lat="59.9688193" lon="17.7563761">
        <ele>32.3416</ele>
        <time>2013-04-17T18:45:17Z</time>
      </trkpt>
      <trkpt lat="59.9688564" lon="17.7562987">
        <ele>32.3416</ele>
        <time>2013-04-17T18:45:18Z</time>
      </trkpt>
      <trkpt lat="59.968894" lon="17.756217">
        <ele>31.8607</ele>
        <time>2013-04-17T18:45:19Z</time>
      </trkpt>
      <trkpt lat="59.9689302" lon="17.7561327">
        <ele>31.8607</ele>
        <time>2013-04-17T18:45:20Z</time>
      </trkpt>
      <trkpt lat="59.9689681" lon="17.7560472">
        <ele>31.8607</ele>
        <time>2013-04-17T18:45:21Z</time>
      </trkpt>
      <trkpt lat="59.9690094" lon="17.7559664">
        <ele>31.3801</ele>
        <time>2013-04-17T18:45:22Z</time>
      </trkpt>
      <trkpt lat="59.9690481" lon="17.7558826">
        <ele>31.3801</ele>
        <time>2013-04-17T18:45:23Z</time>
      </trkpt>
      <trkpt lat="59.9690856" lon="17.7557986">
        <ele>31.3801</ele>
        <time>2013-04-17T18:45:24Z</time>
      </trkpt>
      <trkpt lat="59.9691243" lon="17.7557154">
        <ele>31.3801</ele>
        <time>2013-04-17T18:45:25Z</time>
      </trkpt>
      <trkpt lat="59.9691647" lon="17.7556317">
        <ele>30.8995</ele>
        <time>2013-04-17T18:45:26Z</time>
      </trkpt>
      <trkpt lat="59.9692059" lon="17.7555457">
        <ele>30.8995</ele>
        <time>2013-04-17T18:45:27Z</time>
      </trkpt>
      <trkpt lat="59.9692471" lon="17.7554572">
        <ele>30.8995</ele>
        <time>2013-04-17T18:45:28Z</time>
      </trkpt>
      <trkpt lat="59.9692875" lon="17.7553664">
        <ele>30.8995</ele>
        <time>2013-04-17T18:45:29Z</time>
      </trkpt>
      <trkpt lat="59.9693291" lon="17.7552795">
        <ele>30.8995</ele>
        <time>2013-04-17T18:45:30Z</time>
      </trkpt>
      <trkpt lat="59.9693703" lon="17.7551914">
        <ele>30.8995</ele>
        <time>2013-04-17T18:45:31Z</time>
      </trkpt>
      <trkpt lat="59.9694119" lon="17.7551065">
        <ele>30.8995</ele>
        <time>2013-04-17T18:45:32Z</time>
      </trkpt>
      <trkpt lat="59.9694529" lon="17.755021">
        <ele>30.8995</ele>
        <time>2013-04-17T18:45:33Z</time>
      </trkpt>
      <trkpt lat="59.9694937" lon="17.7549351">
        <ele>30.8995</ele>
        <time>2013-04-17T18:45:34Z</time>
      </trkpt>
      <trkpt lat="59.9695341" lon="17.7548509">
        <ele>30.8995</ele>
        <time>2013-04-17T18:45:35Z</time>
      </trkpt>
      <trkpt lat="59.9695742" lon="17.7547675">
        <ele>30.8995</ele>
        <time>2013-04-17T18:45:36Z</time>
      </trkpt>
      <trkpt lat="59.9696145" lon="17.7546852">
        <ele>30.8995</ele>
        <time>2013-04-17T18:45:37Z</time>
      </trkpt>
      <trkpt lat="59.9696554" lon="17.7546056">
        <ele>30.8995</ele>
        <time>2013-04-17T18:45:38Z</time>
      </trkpt>
      <trkpt lat="59.9696958" lon="17.7545279">
        <ele>30.8995</ele>
        <time>2013-04-17T18:45:39Z</time>
      </trkpt>
      <trkpt lat="59.9697347" lon="17.7544479">
        <ele>30.8995</ele>
        <time>2013-04-17T18:45:40Z</time>
      </trkpt>
      <trkpt lat="59.9697743" lon="17.7543667">
        <ele>30.4188</ele>
        <time>2013-04-17T18:45:41Z</time>
      </trkpt>
      <trkpt lat="59.9698148" lon="17.7542785">
        <ele>30.8995</ele>
        <time>2013-04-17T18:45:42Z</time>
      </trkpt>
      <trkpt lat="59.969857" lon="17.7541939">
        <ele>30.4188</ele>
        <time>2013-04-17T18:45:43Z</time>
      </trkpt>
      <trkpt lat="59.9698983" lon="17.7541044">
        <ele>30.4188</ele>
        <time>2013-04-17T18:45:44Z</time>
      </trkpt>
      <trkpt lat="59.9699407" lon="17.7540177">
        <ele>30.4188</ele>
        <time>2013-04-17T18:45:45Z</time>
      </trkpt>
      <trkpt lat="59.9699823" lon="17.753929">
        <ele>30.4188</ele>
        <time>2013-04-17T18:45:46Z</time>
      </trkpt>
      <trkpt lat="59.9700217" lon="17.7538359">
        <ele>30.4188</ele>
        <time>2013-04-17T18:45:47Z</time>
      </trkpt>
      <trkpt lat="59.9700606" lon="17.7537429">
        <ele>29.9381</ele>
        <time>2013-04-17T18:45:48Z</time>
      </trkpt>
      <trkpt lat="59.9700991" lon="17.7536478">
        <ele>29.9381</ele>
        <time>2013-04-17T18:45:49Z</time>
      </trkpt>
      <trkpt lat="59.9701364" lon="17.7535489">
        <ele>29.9381</ele>
        <time>2013-04-17T18:45:50Z</time>
      </trkpt>
      <trkpt lat="59.9701713" lon="17.7534437">
        <ele>29.9381</ele>
        <time>2013-04-17T18:45:51Z</time>
      </trkpt>
      <trkpt lat="59.9702075" lon="17.7533447">
        <ele>29.9381</ele>
        <time>2013-04-17T18:45:52Z</time>
      </trkpt>
      <trkpt lat="59.9702421" lon="17.7532437">
        <ele>29.9381</ele>
        <time>2013-04-17T18:45:53Z</time>
      </trkpt>
      <trkpt lat="59.9702766" lon="17.7531454">
        <ele>29.9381</ele>
        <time>2013-04-17T18:45:54Z</time>
      </trkpt>
      <trkpt lat="59.9703102" lon="17.7530454">
        <ele>29.9381</ele>
        <time>2013-04-17T18:45:55Z</time>
      </trkpt>
      <trkpt lat="59.970345" lon="17.7529527">
        <ele>29.9381</ele>
        <time>2013-04-17T18:45:56Z</time>
      </trkpt>
      <trkpt lat="59.9703801" lon="17.7528552">
        <ele>29.9381</ele>
        <time>2013-04-17T18:45:57Z</time>
      </trkpt>
      <trkpt lat="59.9704101" lon="17.7527252">
        <ele>29.9381</ele>
        <time>2013-04-17T18:45:58Z</time>
      </trkpt>
      <trkpt lat="59.9704449" lon="17.7526229">
        <ele>29.9381</ele>
        <time>2013-04-17T18:45:59Z</time>
      </trkpt>
      <trkpt lat="59.9704799" lon="17.752525">
        <ele>29.9381</ele>
        <time>2013-04-17T18:46:00Z</time>
      </trkpt>
      <trkpt lat="59.9705179" lon="17.7524346">
        <ele>29.9381</ele>
        <time>2013-04-17T18:46:01Z</time>
      </trkpt>
      <trkpt lat="59.9705579" lon="17.7523465">
        <ele>29.9381</ele>
        <time>2013-04-17T18:46:02Z</time>
      </trkpt>
      <trkpt lat="59.9705997" lon="17.7522596">
        <ele>29.4575</ele>
        <time>2013-04-17T18:46:03Z</time>
      </trkpt>
      <trkpt lat="59.9706464" lon="17.7521843">
        <ele>29.4575</ele>
        <time>2013-04-17T18:46:04Z</time>
      </trkpt>
      <trkpt lat="59.9706925" lon="17.7521049">
        <ele>29.4575</ele>
        <time>2013-04-17T18:46:05Z</time>
      </trkpt>
      <trkpt lat="59.9707396" lon="17.7520262">
        <ele>28.9769</ele>
        <time>2013-04-17T18:46:06Z</time>
      </trkpt>
      <trkpt lat="59.9707883" lon="17.7519508">
        <ele>28.9769</ele>
        <time>2013-04-17T18:46:07Z</time>
      </trkpt>
      <trkpt lat="59.9708347" lon="17.7518679">
        <ele>28.9769</ele>
        <time>2013-04-17T18:46:08Z</time>
      </trkpt>
      <trkpt lat="59.970883" lon="17.751789">
        <ele>28.9769</ele>
        <time>2013-04-17T18:46:09Z</time>
      </trkpt>
      <trkpt lat="59.9709316" lon="17.7517094">
        <ele>29.4575</ele>
        <time>2013-04-17T18:46:10Z</time>
      </trkpt>
      <trkpt lat="59.9709839" lon="17.7516446">
        <ele>28.9769</ele>
        <time>2013-04-17T18:46:11Z</time>
      </trkpt>
      <trkpt lat="59.9710343" lon="17.7515777">
        <ele>29.4575</ele>
        <time>2013-04-17T18:46:12Z</time>
      </trkpt>
      <trkpt lat="59.971085" lon="17.751514">
        <ele>29.4575</ele>
        <time>2013-04-17T18:46:13Z</time>
      </trkpt>
      <trkpt lat="59.9711349" lon="17.751454">
        <ele>29.4575</ele>
        <time>2013-04-17T18:46:14Z</time>
      </trkpt>
      <trkpt lat="59.9711838" lon="17.7513965">
        <ele>29.4575</ele>
        <time>2013-04-17T18:46:15Z</time>
      </trkpt>
      <trkpt lat="59.971232" lon="17.751344">
        <ele>29.9381</ele>
        <time>2013-04-17T18:46:16Z</time>
      </trkpt>
      <trkpt lat="59.9712787" lon="17.7512911">
        <ele>29.9381</ele>
        <time>2013-04-17T18:46:17Z</time>
      </trkpt>
      <trkpt lat="59.971327" lon="17.7512419">
        <ele>29.9381</ele>
        <time>2013-04-17T18:46:18Z</time>
      </trkpt>
      <trkpt lat="59.9713752" lon="17.7511857">
        <ele>29.9381</ele>
        <time>2013-04-17T18:46:19Z</time>
      </trkpt>
      <trkpt lat="59.9714252" lon="17.7511322">
        <ele>29.9381</ele>
        <time>2013-04-17T18:46:20Z</time>
      </trkpt>
      <trkpt lat="59.9714752" lon="17.7510778">
        <ele>29.9381</ele>
        <time>2013-04-17T18:46:21Z</time>
      </trkpt>
      <trkpt lat="59.9715238" lon="17.7510171">
        <ele>29.9381</ele>
        <time>2013-04-17T18:46:22Z</time>
      </trkpt>
      <trkpt lat="59.9715706" lon="17.7509494">
        <ele>30.4188</ele>
        <time>2013-04-17T18:46:23Z</time>
      </trkpt>
      <trkpt lat="59.9716171" lon="17.7508796">
        <ele>30.8995</ele>
        <time>2013-04-17T18:46:24Z</time>
      </trkpt>
      <trkpt lat="59.9716618" lon="17.7508028">
        <ele>31.3801</ele>
        <time>2013-04-17T18:46:25Z</time>
      </trkpt>
      <trkpt lat="59.9717062" lon="17.7507218">
        <ele>31.8607</ele>
        <time>2013-04-17T18:46:26Z</time>
      </trkpt>
      <trkpt lat="59.9717492" lon="17.7506324">
        <ele>32.3416</ele>
        <time>2013-04-17T18:46:27Z</time>
      </trkpt>
      <trkpt lat="59.9717942" lon="17.750552">
        <ele>32.8223</ele>
        <time>2013-04-17T18:46:28Z</time>
      </trkpt>
      <trkpt lat="59.9718394" lon="17.7504698">
        <ele>32.8223</ele>
        <time>2013-04-17T18:46:29Z</time>
      </trkpt>
      <trkpt lat="59.9718838" lon="17.7503817">
        <ele>33.3029</ele>
        <time>2013-04-17T18:46:30Z</time>
      </trkpt>
      <trkpt lat="59.9719257" lon="17.7502891">
        <ele>33.7834</ele>
        <time>2013-04-17T18:46:31Z</time>
      </trkpt>
      <trkpt lat="59.9719664" lon="17.7501982">
        <ele>34.2642</ele>
        <time>2013-04-17T18:46:32Z</time>
      </trkpt>
      <trkpt lat="59.972007" lon="17.7501065">
        <ele>34.7449</ele>
        <time>2013-04-17T18:46:33Z</time>
      </trkpt>
      <trkpt lat="59.972048" lon="17.7500218">
        <ele>34.7449</ele>
        <time>2013-04-17T18:46:34Z</time>
      </trkpt>
      <trkpt lat="59.9720844" lon="17.7499285">
        <ele>35.2255</ele>
        <time>2013-04-17T18:46:35Z</time>
      </trkpt>
      <trkpt lat="59.9721211" lon="17.7498445">
        <ele>35.2255</ele>
        <time>2013-04-17T18:46:36Z</time>
      </trkpt>
      <trkpt lat="59.9721568" lon="17.7497663">
        <ele>35.2255</ele>
        <time>2013-04-17T18:46:37Z</time>
      </trkpt>
      <trkpt lat="59.9721912" lon="17.7496916">
        <ele>35.2255</ele>
        <time>2013-04-17T18:46:38Z</time>
      </trkpt>
      <trkpt lat="59.9722279" lon="17.7496224">
        <ele>35.2255</ele>
        <time>2013-04-17T18:46:39Z</time>
      </trkpt>
      <trkpt lat="59.9722651" lon="17.7495516">
        <ele>35.7061</ele>
        <time>2013-04-17T18:46:40Z</time>
      </trkpt>
      <trkpt lat="59.972301" lon="17.749476">
        <ele>35.7061</ele>
        <time>2013-04-17T18:46:41Z</time>
      </trkpt>
      <trkpt lat="59.9723362" lon="17.7493962">
        <ele>35.2255</ele>
        <time>2013-04-17T18:46:42Z</time>
      </trkpt>
      <trkpt lat="59.9723728" lon="17.7493165">
        <ele>35.2255</ele>
        <time>2013-04-17T18:46:43Z</time>
      </trkpt>
      <trkpt lat="59.9724093" lon="17.7492368">
        <ele>35.2255</ele>
        <time>2013-04-17T18:46:44Z</time>
      </trkpt>
      <trkpt lat="59.9724459" lon="17.7491569">
        <ele>34.2642</ele>
        <time>2013-04-17T18:46:45Z</time>
      </trkpt>
      <trkpt lat="59.9724832" lon="17.7490764">
        <ele>33.7834</ele>
        <time>2013-04-17T18:46:46Z</time>
      </trkpt>
      <trkpt lat="59.9725214" lon="17.748995">
        <ele>33.7834</ele>
        <time>2013-04-17T18:46:47Z</time>
      </trkpt>
      <trkpt lat="59.9725594" lon="17.748914">
        <ele>33.3029</ele>
        <time>2013-04-17T18:46:48Z</time>
      </trkpt>
      <trkpt lat="59.9726012" lon="17.7488328">
        <ele>33.7834</ele>
        <time>2013-04-17T18:46:49Z</time>
      </trkpt>
      <trkpt lat="59.9726408" lon="17.7487477">
        <ele>33.3029</ele>
        <time>2013-04-17T18:46:50Z</time>
      </trkpt>
      <trkpt lat="59.9726801" lon="17.7486583">
        <ele>32.8223</ele>
        <time>2013-04-17T18:46:51Z</time>
      </trkpt>
      <trkpt lat="59.97272" lon="17.7485666">
        <ele>32.8223</ele>
        <time>2013-04-17T18:46:52Z</time>
      </trkpt>
      <trkpt lat="59.9727605" lon="17.7484695">
        <ele>32.8223</ele>
        <time>2013-04-17T18:46:53Z</time>
      </trkpt>
      <trkpt lat="59.9728038" lon="17.7483729">
        <ele>32.8223</ele>
        <time>2013-04-17T18:46:54Z</time>
      </trkpt>
      <trkpt lat="59.9728496" lon="17.7482817">
        <ele>32.3416</ele>
        <time>2013-04-17T18:46:55Z</time>
      </trkpt>
      <trkpt lat="59.9728975" lon="17.7481936">
        <ele>31.8607</ele>
        <time>2013-04-17T18:46:56Z</time>
      </trkpt>
      <trkpt lat="59.9729468" lon="17.7481065">
        <ele>31.8607</ele>
        <time>2013-04-17T18:46:57Z</time>
      </trkpt>
      <trkpt lat="59.9729982" lon="17.7480261">
        <ele>31.8607</ele>
        <time>2013-04-17T18:46:58Z</time>
      </trkpt>
      <trkpt lat="59.9730506" lon="17.7479524">
        <ele>31.8607</ele>
        <time>2013-04-17T18:46:59Z</time>
      </trkpt>
      <trkpt lat="59.9731042" lon="17.7478865">
        <ele>31.8607</ele>
        <time>2013-04-17T18:47:00Z</time>
      </trkpt>
      <trkpt lat="59.9731573" lon="17.7478237">
        <ele>31.8607</ele>
        <time>2013-04-17T18:47:01Z</time>
      </trkpt>
      <trkpt lat="59.97321" lon="17.7477615">
        <ele>31.8607</ele>
        <time>2013-04-17T18:47:02Z</time>
      </trkpt>
      <trkpt lat="59.9732621" lon="17.747703">
        <ele>32.3416</ele>
        <time>2013-04-17T18:47:03Z</time>
      </trkpt>
      <trkpt lat="59.9733131" lon="17.7476491">
        <ele>32.3416</ele>
        <time>2013-04-17T18:47:04Z</time>
      </trkpt>
      <trkpt lat="59.9733623" lon="17.7475977">
        <ele>32.3416</ele>
        <time>2013-04-17T18:47:05Z</time>
      </trkpt>
      <trkpt lat="59.9734113" lon="17.7475482">
        <ele>32.3416</ele>
        <time>2013-04-17T18:47:06Z</time>
      </trkpt>
      <trkpt lat="59.9734598" lon="17.747501">
        <ele>32.3416</ele>
        <time>2013-04-17T18:47:07Z</time>
      </trkpt>
      <trkpt lat="59.9735068" lon="17.7474499">
        <ele>32.8223</ele>
        <time>2013-04-17T18:47:08Z</time>
      </trkpt>
      <trkpt lat="59.9735543" lon="17.7474038">
        <ele>32.8223</ele>
        <time>2013-04-17T18:47:09Z</time>
      </trkpt>
      <trkpt lat="59.9736015" lon="17.7473555">
        <ele>33.3029</ele>
        <time>2013-04-17T18:47:10Z</time>
      </trkpt>
      <trkpt lat="59.9736476" lon="17.7473035">
        <ele>33.3029</ele>
        <time>2013-04-17T18:47:11Z</time>
      </trkpt>
      <trkpt lat="59.9736923" lon="17.7472497">
        <ele>33.7834</ele>
        <time>2013-04-17T18:47:12Z</time>
      </trkpt>
      <trkpt lat="59.9737363" lon="17.7471954">
        <ele>33.7834</ele>
        <time>2013-04-17T18:47:13Z</time>
      </trkpt>
      <trkpt lat="59.9737803" lon="17.7471442">
        <ele>33.7834</ele>
        <time>2013-04-17T18:47:14Z</time>
      </trkpt>
      <trkpt lat="59.9738249" lon="17.7470918">
        <ele>33.7834</ele>
        <time>2013-04-17T18:47:15Z</time>
      </trkpt>
      <trkpt lat="59.9738695" lon="17.7470363">
        <ele>33.3029</ele>
        <time>2013-04-17T18:47:16Z</time>
      </trkpt>
      <trkpt lat="59.973915" lon="17.7469813">
        <ele>33.3029</ele>
        <time>2013-04-17T18:47:17Z</time>
      </trkpt>
      <trkpt lat="59.9739616" lon="17.746924">
        <ele>33.3029</ele>
        <time>2013-04-17T18:47:18Z</time>
      </trkpt>
      <trkpt lat="59.9740077" lon="17.7468648">
        <ele>32.8223</ele>
        <time>2013-04-17T18:47:19Z</time>
      </trkpt>
      <trkpt lat="59.9740549" lon="17.7468044">
        <ele>32.8223</ele>
        <time>2013-04-17T18:47:20Z</time>
      </trkpt>
      <trkpt lat="59.9741034" lon="17.7467466">
        <ele>32.8223</ele>
        <time>2013-04-17T18:47:21Z</time>
      </trkpt>
      <trkpt lat="59.9741508" lon="17.7466853">
        <ele>32.8223</ele>
        <time>2013-04-17T18:47:22Z</time>
      </trkpt>
      <trkpt lat="59.9741984" lon="17.7466246">
        <ele>32.8223</ele>
        <time>2013-04-17T18:47:23Z</time>
      </trkpt>
      <trkpt lat="59.9742451" lon="17.746562">
        <ele>32.8223</ele>
        <time>2013-04-17T18:47:24Z</time>
      </trkpt>
      <trkpt lat="59.9742911" lon="17.7465001">
        <ele>32.8223</ele>
        <time>2013-04-17T18:47:25Z</time>
      </trkpt>
      <trkpt lat="59.9743354" lon="17.7464364">
        <ele>32.8223</ele>
        <time>2013-04-17T18:47:26Z</time>
      </trkpt>
      <trkpt lat="59.9743801" lon="17.7463779">
        <ele>32.8223</ele>
        <time>2013-04-17T18:47:27Z</time>
      </trkpt>
      <trkpt lat="59.9744245" lon="17.7463196">
        <ele>32.8223</ele>
        <time>2013-04-17T18:47:28Z</time>
      </trkpt>
      <trkpt lat="59.9744667" lon="17.7462563">
        <ele>32.8223</ele>
        <time>2013-04-17T18:47:29Z</time>
      </trkpt>
      <trkpt lat="59.9745079" lon="17.7461925">
        <ele>32.8223</ele>
        <time>2013-04-17T18:47:30Z</time>
      </trkpt>
      <trkpt lat="59.9745489" lon="17.7461294">
        <ele>33.3029</ele>
        <time>2013-04-17T18:47:31Z</time>
      </trkpt>
      <trkpt lat="59.9745898" lon="17.7460688">
        <ele>32.8223</ele>
        <time>2013-04-17T18:47:32Z</time>
      </trkpt>
      <trkpt lat="59.9746297" lon="17.7460031">
        <ele>32.8223</ele>
        <time>2013-04-17T18:47:33Z</time>
      </trkpt>
      <trkpt lat="59.9746691" lon="17.745932">
        <ele>32.8223</ele>
        <time>2013-04-17T18:47:34Z</time>
      </trkpt>
      <trkpt lat="59.9747089" lon="17.7458564">
        <ele>32.8223</ele>
        <time>2013-04-17T18:47:35Z</time>
      </trkpt>
      <trkpt lat="59.9747479" lon="17.745773">
        <ele>32.8223</ele>
        <time>2013-04-17T18:47:36Z</time>
      </trkpt>
      <trkpt lat="59.9747866" lon="17.7456839">
        <ele>32.3416</ele>
        <time>2013-04-17T18:47:37Z</time>
      </trkpt>
      <trkpt lat="59.9748249" lon="17.7455904">
        <ele>32.3416</ele>
        <time>2013-04-17T18:47:38Z</time>
      </trkpt>
      <trkpt lat="59.9748625" lon="17.7454927">
        <ele>32.3416</ele>
        <time>2013-04-17T18:47:39Z</time>
      </trkpt>
      <trkpt lat="59.9749008" lon="17.7453947">
        <ele>31.8607</ele>
        <time>2013-04-17T18:47:40Z</time>
      </trkpt>
      <trkpt lat="59.9749368" lon="17.7452882">
        <ele>31.8607</ele>
        <time>2013-04-17T18:47:41Z</time>
      </trkpt>
      <trkpt lat="59.9749733" lon="17.745184">
        <ele>31.8607</ele>
        <time>2013-04-17T18:47:42Z</time>
      </trkpt>
      <trkpt lat="59.9750094" lon="17.7450777">
        <ele>31.3801</ele>
        <time>2013-04-17T18:47:43Z</time>
      </trkpt>
      <trkpt lat="59.9750432" lon="17.7449675">
        <ele>31.3801</ele>
        <time>2013-04-17T18:47:44Z</time>
      </trkpt>
      <trkpt lat="59.9750764" lon="17.7448578">
        <ele>31.3801</ele>
        <time>2013-04-17T18:47:45Z</time>
      </trkpt>
      <trkpt lat="59.975109" lon="17.7447482">
        <ele>31.3801</ele>
        <time>2013-04-17T18:47:46Z</time>
      </trkpt>
      <trkpt lat="59.9751404" lon="17.7446416">
        <ele>31.3801</ele>
        <time>2013-04-17T18:47:47Z</time>
      </trkpt>
      <trkpt lat="59.975169" lon="17.7445339">
        <ele>31.3801</ele>
        <time>2013-04-17T18:47:48Z</time>
      </trkpt>
      <trkpt lat="59.9751953" lon="17.7444285">
        <ele>31.3801</ele>
        <time>2013-04-17T18:47:49Z</time>
      </trkpt>
      <trkpt lat="59.9752194" lon="17.7443246">
        <ele>31.3801</ele>
        <time>2013-04-17T18:47:50Z</time>
      </trkpt>
      <trkpt lat="59.9752417" lon="17.7442209">
        <ele>31.3801</ele>
        <time>2013-04-17T18:47:51Z</time>
      </trkpt>
      <trkpt lat="59.9752628" lon="17.7441183">
        <ele>31.3801</ele>
        <time>2013-04-17T18:47:52Z</time>
      </trkpt>
      <trkpt lat="59.9752815" lon="17.7440122">
        <ele>31.3801</ele>
        <time>2013-04-17T18:47:53Z</time>
      </trkpt>
      <trkpt lat="59.9753012" lon="17.7439106">
        <ele>31.3801</ele>
        <time>2013-04-17T18:47:54Z</time>
      </trkpt>
      <trkpt lat="59.9753219" lon="17.7438148">
        <ele>30.8995</ele>
        <time>2013-04-17T18:47:55Z</time>
      </trkpt>
      <trkpt lat="59.9753411" lon="17.7437171">
        <ele>30.8995</ele>
        <time>2013-04-17T18:47:56Z</time>
      </trkpt>
      <trkpt lat="59.9753582" lon="17.7436222">
        <ele>30.4188</ele>
        <time>2013-04-17T18:47:57Z</time>
      </trkpt>
      <trkpt lat="59.9753742" lon="17.7435226">
        <ele>30.4188</ele>
        <time>2013-04-17T18:47:58Z</time>
      </trkpt>
      <trkpt lat="59.9753932" lon="17.7434306">
        <ele>30.4188</ele>
        <time>2013-04-17T18:47:59Z</time>
      </trkpt>
      <trkpt lat="59.9754126" lon="17.7433382">
        <ele>30.8995</ele>
        <time>2013-04-17T18:48:00Z</time>
      </trkpt>
      <trkpt lat="59.9754342" lon="17.7432487">
        <ele>30.8995</ele>
        <time>2013-04-17T18:48:01Z</time>
      </trkpt>
      <trkpt lat="59.9754575" lon="17.7431608">
        <ele>30.8995</ele>
        <time>2013-04-17T18:48:02Z</time>
      </trkpt>
      <trkpt lat="59.9754793" lon="17.7430726">
        <ele>30.8995</ele>
        <time>2013-04-17T18:48:03Z</time>
      </trkpt>
      <trkpt lat="59.9755009" lon="17.7429871">
        <ele>30.8995</ele>
        <time>2013-04-17T18:48:04Z</time>
      </trkpt>
      <trkpt lat="59.9755234" lon="17.7429052">
        <ele>30.8995</ele>
        <time>2013-04-17T18:48:05Z</time>
      </trkpt>
      <trkpt lat="59.9755468" lon="17.7428255">
        <ele>30.8995</ele>
        <time>2013-04-17T18:48:06Z</time>
      </trkpt>
      <trkpt lat="59.9755699" lon="17.7427443">
        <ele>31.3801</ele>
        <time>2013-04-17T18:48:07Z</time>
      </trkpt>
      <trkpt lat="59.9755932" lon="17.7426629">
        <ele>31.3801</ele>
        <time>2013-04-17T18:48:08Z</time>
      </trkpt>
      <trkpt lat="59.9756156" lon="17.7425801">
        <ele>31.3801</ele>
        <time>2013-04-17T18:48:09Z</time>
      </trkpt>
      <trkpt lat="59.9756373" lon="17.7424945">
        <ele>31.3801</ele>
        <time>2013-04-17T18:48:10Z</time>
      </trkpt>
      <trkpt lat="59.9756605" lon="17.7424063">
        <ele>31.3801</ele>
        <time>2013-04-17T18:48:11Z</time>
      </trkpt>
      <trkpt lat="59.9756846" lon="17.7423158">
        <ele>31.3801</ele>
        <time>2013-04-17T18:48:12Z</time>
      </trkpt>
      <trkpt lat="59.9757068" lon="17.7422198">
        <ele>31.3801</ele>
        <time>2013-04-17T18:48:13Z</time>
      </trkpt>
      <trkpt lat="59.9757296" lon="17.7421219">
        <ele>31.3801</ele>
        <time>2013-04-17T18:48:14Z</time>
      </trkpt>
      <trkpt lat="59.9757522" lon="17.7420195">
        <ele>31.3801</ele>
        <time>2013-04-17T18:48:15Z</time>
      </trkpt>
      <trkpt lat="59.9757744" lon="17.7419165">
        <ele>31.3801</ele>
        <time>2013-04-17T18:48:16Z</time>
      </trkpt>
      <trkpt lat="59.9757965" lon="17.7418124">
        <ele>30.8995</ele>
        <time>2013-04-17T18:48:17Z</time>
      </trkpt>
      <trkpt lat="59.9758193" lon="17.7417072">
        <ele>31.3801</ele>
        <time>2013-04-17T18:48:18Z</time>
      </trkpt>
      <trkpt lat="59.9758435" lon="17.7416036">
        <ele>30.8995</ele>
        <time>2013-04-17T18:48:19Z</time>
      </trkpt>
      <trkpt lat="59.9758662" lon="17.7414959">
        <ele>30.8995</ele>
        <time>2013-04-17T18:48:20Z</time>
      </trkpt>
      <trkpt lat="59.9758907" lon="17.7413927">
        <ele>30.8995</ele>
        <time>2013-04-17T18:48:21Z</time>
      </trkpt>
      <trkpt lat="59.9759171" lon="17.7412884">
        <ele>30.8995</ele>
        <time>2013-04-17T18:48:22Z</time>
      </trkpt>
      <trkpt lat="59.9759442" lon="17.7411835">
        <ele>30.8995</ele>
        <time>2013-04-17T18:48:23Z</time>
      </trkpt>
      <trkpt lat="59.9759705" lon="17.7410802">
        <ele>30.4188</ele>
        <time>2013-04-17T18:48:24Z</time>
      </trkpt>
      <trkpt lat="59.9759958" lon="17.7409784">
        <ele>30.4188</ele>
        <time>2013-04-17T18:48:25Z</time>
      </trkpt>
      <trkpt lat="59.9760216" lon="17.7408807">
        <ele>30.4188</ele>
        <time>2013-04-17T18:48:26Z</time>
      </trkpt>
      <trkpt lat="59.9760498" lon="17.7407861">
        <ele>30.4188</ele>
        <time>2013-04-17T18:48:27Z</time>
      </trkpt>
      <trkpt lat="59.9760803" lon="17.740694">
        <ele>30.4188</ele>
        <time>2013-04-17T18:48:28Z</time>
      </trkpt>
      <trkpt lat="59.9761109" lon="17.7406039">
        <ele>29.9381</ele>
        <time>2013-04-17T18:48:29Z</time>
      </trkpt>
      <trkpt lat="59.976141" lon="17.7405152">
        <ele>29.9381</ele>
        <time>2013-04-17T18:48:30Z</time>
      </trkpt>
      <trkpt lat="59.9761705" lon="17.7404275">
        <ele>29.9381</ele>
        <time>2013-04-17T18:48:31Z</time>
      </trkpt>
      <trkpt lat="59.9761995" lon="17.7403406">
        <ele>29.9381</ele>
        <time>2013-04-17T18:48:32Z</time>
      </trkpt>
      <trkpt lat="59.9762275" lon="17.7402541">
        <ele>29.9381</ele>
        <time>2013-04-17T18:48:33Z</time>
      </trkpt>
      <trkpt lat="59.9762562" lon="17.7401686">
        <ele>29.9381</ele>
        <time>2013-04-17T18:48:34Z</time>
      </trkpt>
      <trkpt lat="59.9762857" lon="17.7400814">
        <ele>29.4575</ele>
        <time>2013-04-17T18:48:35Z</time>
      </trkpt>
      <trkpt lat="59.976315" lon="17.7399889">
        <ele>29.4575</ele>
        <time>2013-04-17T18:48:36Z</time>
      </trkpt>
      <trkpt lat="59.9763476" lon="17.7398939">
        <ele>29.4575</ele>
        <time>2013-04-17T18:48:37Z</time>
      </trkpt>
      <trkpt lat="59.9763859" lon="17.7398024">
        <ele>28.9769</ele>
        <time>2013-04-17T18:48:38Z</time>
      </trkpt>
      <trkpt lat="59.9764289" lon="17.7397189">
        <ele>28.9769</ele>
        <time>2013-04-17T18:48:39Z</time>
      </trkpt>
      <trkpt lat="59.9764762" lon="17.7396454">
        <ele>29.4575</ele>
        <time>2013-04-17T18:48:40Z</time>
      </trkpt>
      <trkpt lat="59.9765267" lon="17.7395822">
        <ele>29.4575</ele>
        <time>2013-04-17T18:48:41Z</time>
      </trkpt>
      <trkpt lat="59.9765782" lon="17.7395261">
        <ele>29.4575</ele>
        <time>2013-04-17T18:48:42Z</time>
      </trkpt>
      <trkpt lat="59.9766304" lon="17.7394787">
        <ele>29.9381</ele>
        <time>2013-04-17T18:48:43Z</time>
      </trkpt>
      <trkpt lat="59.9766812" lon="17.739444">
        <ele>30.4188</ele>
        <time>2013-04-17T18:48:44Z</time>
      </trkpt>
      <trkpt lat="59.9767304" lon="17.7394196">
        <ele>30.4188</ele>
        <time>2013-04-17T18:48:45Z</time>
      </trkpt>
      <trkpt lat="59.9767784" lon="17.7394003">
        <ele>30.8995</ele>
        <time>2013-04-17T18:48:46Z</time>
      </trkpt>
      <trkpt lat="59.9768255" lon="17.7393819">
        <ele>30.8995</ele>
        <time>2013-04-17T18:48:47Z</time>
      </trkpt>
      <trkpt lat="59.9768719" lon="17.7393624">
        <ele>31.3801</ele>
        <time>2013-04-17T18:48:48Z</time>
      </trkpt>
      <trkpt lat="59.9769195" lon="17.7393463">
        <ele>31.8607</ele>
        <time>2013-04-17T18:48:49Z</time>
      </trkpt>
      <trkpt lat="59.9769672" lon="17.7393258">
        <ele>31.8607</ele>
        <time>2013-04-17T18:48:50Z</time>
      </trkpt>
      <trkpt lat="59.9770142" lon="17.7392963">
        <ele>32.3416</ele>
        <time>2013-04-17T18:48:51Z</time>
      </trkpt>
      <trkpt lat="59.9770619" lon="17.7392657">
        <ele>32.8223</ele>
        <time>2013-04-17T18:48:52Z</time>
      </trkpt>
      <trkpt lat="59.9771117" lon="17.7392372">
        <ele>32.8223</ele>
        <time>2013-04-17T18:48:53Z</time>
      </trkpt>
      <trkpt lat="59.9771628" lon="17.7392092">
        <ele>33.3029</ele>
        <time>2013-04-17T18:48:54Z</time>
      </trkpt>
      <trkpt lat="59.9772132" lon="17.7391773">
        <ele>33.3029</ele>
        <time>2013-04-17T18:48:55Z</time>
      </trkpt>
      <trkpt lat="59.9772648" lon="17.7391487">
        <ele>33.3029</ele>
        <time>2013-04-17T18:48:56Z</time>
      </trkpt>
      <trkpt lat="59.9773158" lon="17.7391211">
        <ele>33.7834</ele>
        <time>2013-04-17T18:48:57Z</time>
      </trkpt>
      <trkpt lat="59.9773675" lon="17.7390939">
        <ele>33.7834</ele>
        <time>2013-04-17T18:48:58Z</time>
      </trkpt>
      <trkpt lat="59.9774199" lon="17.7390726">
        <ele>33.7834</ele>
        <time>2013-04-17T18:48:59Z</time>
      </trkpt>
      <trkpt lat="59.9774723" lon="17.7390528">
        <ele>34.2642</ele>
        <time>2013-04-17T18:49:00Z</time>
      </trkpt>
      <trkpt lat="59.9775222" lon="17.7390382">
        <ele>34.2642</ele>
        <time>2013-04-17T18:49:01Z</time>
      </trkpt>
      <trkpt lat="59.9775731" lon="17.7390288">
        <ele>34.7449</ele>
        <time>2013-04-17T18:49:02Z</time>
      </trkpt>
      <trkpt lat="59.9776224" lon="17.7390278">
        <ele>35.2255</ele>
        <time>2013-04-17T18:49:03Z</time>
      </trkpt>
      <trkpt lat="59.9776706" lon="17.739032">
        <ele>35.7061</ele>
        <time>2013-04-17T18:49:04Z</time>
      </trkpt>
      <trkpt lat="59.9777189" lon="17.7390398">
        <ele>35.7061</ele>
        <time>2013-04-17T18:49:05Z</time>
      </trkpt>
      <trkpt lat="59.9777675" lon="17.7390542">
        <ele>36.1868</ele>
        <time>2013-04-17T18:49:06Z</time>
      </trkpt>
      <trkpt lat="59.9778156" lon="17.7390742">
        <ele>36.1868</ele>
        <time>2013-04-17T18:49:07Z</time>
      </trkpt>
      <trkpt lat="59.9778641" lon="17.7390989">
        <ele>36.1868</ele>
        <time>2013-04-17T18:49:08Z</time>
      </trkpt>
      <trkpt lat="59.9779125" lon="17.7391286">
        <ele>36.6675</ele>
        <time>2013-04-17T18:49:09Z</time>
      </trkpt>
      <trkpt lat="59.9779617" lon="17.7391625">
        <ele>37.1481</ele>
        <time>2013-04-17T18:49:10Z</time>
      </trkpt>
      <trkpt lat="59.9780104" lon="17.7391941">
        <ele>37.1481</ele>
        <time>2013-04-17T18:49:11Z</time>
      </trkpt>
      <trkpt lat="59.9780576" lon="17.7392205">
        <ele>37.1481</ele>
        <time>2013-04-17T18:49:12Z</time>
      </trkpt>
      <trkpt lat="59.9781022" lon="17.7392392">
        <ele>37.1481</ele>
        <time>2013-04-17T18:49:13Z</time>
      </trkpt>
      <trkpt lat="59.9781451" lon="17.7392543">
        <ele>36.6675</ele>
        <time>2013-04-17T18:49:14Z</time>
      </trkpt>
      <trkpt lat="59.9781873" lon="17.7392658">
        <ele>36.6675</ele>
        <time>2013-04-17T18:49:15Z</time>
      </trkpt>
      <trkpt lat="59.9782277" lon="17.7392776">
        <ele>36.1868</ele>
        <time>2013-04-17T18:49:16Z</time>
      </trkpt>
      <trkpt lat="59.9782694" lon="17.7392896">
        <ele>36.1868</ele>
        <time>2013-04-17T18:49:17Z</time>
      </trkpt>
      <trkpt lat="59.9783164" lon="17.7393018">
        <ele>36.1868</ele>
        <time>2013-04-17T18:49:18Z</time>
      </trkpt>
      <trkpt lat="59.9783648" lon="17.7393133">
        <ele>35.7061</ele>
        <time>2013-04-17T18:49:19Z</time>
      </trkpt>
      <trkpt lat="59.9784144" lon="17.7393206">
        <ele>35.7061</ele>
        <time>2013-04-17T18:49:20Z</time>
      </trkpt>
      <trkpt lat="59.9784627" lon="17.7393227">
        <ele>35.2255</ele>
        <time>2013-04-17T18:49:21Z</time>
      </trkpt>
      <trkpt lat="59.9785113" lon="17.7393266">
        <ele>34.7449</ele>
        <time>2013-04-17T18:49:22Z</time>
      </trkpt>
      <trkpt lat="59.9785615" lon="17.739333">
        <ele>34.2642</ele>
        <time>2013-04-17T18:49:23Z</time>
      </trkpt>
      <trkpt lat="59.9786113" lon="17.739341">
        <ele>33.7834</ele>
        <time>2013-04-17T18:49:24Z</time>
      </trkpt>
      <trkpt lat="59.9786604" lon="17.7393528">
        <ele>33.7834</ele>
        <time>2013-04-17T18:49:25Z</time>
      </trkpt>
      <trkpt lat="59.9787088" lon="17.739363">
        <ele>33.3029</ele>
        <time>2013-04-17T18:49:26Z</time>
      </trkpt>
      <trkpt lat="59.9787504" lon="17.7393673">
        <ele>33.3029</ele>
        <time>2013-04-17T18:49:27Z</time>
      </trkpt>
    </trkseg>
  </trk>
</gpx>